sensor_id;sensor_type;location;lat;lon;timestamp;P1;durP1;ratioP1;P2;durP2;ratioP2
23952;SDS011;12163;49.316;6.092;2023-03-03T00:01:13;23.17;;;12.93;;
23952;SDS011;12163;49.316;6.092;2023-03-03T00:03:40;25.88;;;11.85;;
23952;SDS011;12163;49.316;6.092;2023-03-03T00:06:08;22.80;;;11.55;;
23952;SDS011;12163;49.316;6.092;2023-03-03T00:08:37;25.35;;;11.75;;
23952;SDS011;12163;49.316;6.092;2023-03-03T00:11:03;20.00;;;11.10;;
23952;SDS011;12163;49.316;6.092;2023-03-03T00:13:32;23.88;;;10.88;;
23952;SDS011;12163;49.316;6.092;2023-03-03T00:16:14;24.27;;;11.23;;
23952;SDS011;12163;49.316;6.092;2023-03-03T00:18:47;18.40;;;10.75;;
23952;SDS011;12163;49.316;6.092;2023-03-03T00:24:02;20.80;;;11.02;;
23952;SDS011;12163;49.316;6.092;2023-03-03T00:26:43;31.20;;;10.32;;
23952;SDS011;12163;49.316;6.092;2023-03-03T00:34:40;24.73;;;10.20;;
23952;SDS011;12163;49.316;6.092;2023-03-03T00:42:52;18.77;;;9.48;;
23952;SDS011;12163;49.316;6.092;2023-03-03T00:47:55;20.63;;;10.23;;
23952;SDS011;12163;49.316;6.092;2023-03-03T00:50:30;18.52;;;9.20;;
23952;SDS011;12163;49.316;6.092;2023-03-03T00:53:04;23.60;;;9.82;;
23952;SDS011;12163;49.316;6.092;2023-03-03T00:55:39;19.95;;;9.57;;
23952;SDS011;12163;49.316;6.092;2023-03-03T00:58:06;19.77;;;9.93;;
23952;SDS011;12163;49.316;6.092;2023-03-03T01:00:32;19.45;;;9.65;;
23952;SDS011;12163;49.316;6.092;2023-03-03T01:03:04;20.35;;;10.07;;
23952;SDS011;12163;49.316;6.092;2023-03-03T01:05:32;17.95;;;8.85;;
23952;SDS011;12163;49.316;6.092;2023-03-03T01:08:00;16.95;;;9.38;;
23952;SDS011;12163;49.316;6.092;2023-03-03T01:10:27;20.63;;;9.18;;
23952;SDS011;12163;49.316;6.092;2023-03-03T01:12:57;25.70;;;9.85;;
23952;SDS011;12163;49.316;6.092;2023-03-03T01:15:23;15.20;;;8.82;;
23952;SDS011;12163;49.316;6.092;2023-03-03T01:17:50;21.67;;;9.43;;
23952;SDS011;12163;49.316;6.092;2023-03-03T01:20:17;16.80;;;9.15;;
23952;SDS011;12163;49.316;6.092;2023-03-03T01:22:43;18.38;;;8.70;;
23952;SDS011;12163;49.316;6.092;2023-03-03T01:25:10;19.48;;;8.80;;
23952;SDS011;12163;49.316;6.092;2023-03-03T01:27:37;19.75;;;9.70;;
23952;SDS011;12163;49.316;6.092;2023-03-03T01:30:04;16.75;;;9.05;;
23952;SDS011;12163;49.316;6.092;2023-03-03T01:32:32;20.80;;;9.18;;
23952;SDS011;12163;49.316;6.092;2023-03-03T01:34:59;19.98;;;8.95;;
23952;SDS011;12163;49.316;6.092;2023-03-03T01:37:25;19.25;;;9.20;;
23952;SDS011;12163;49.316;6.092;2023-03-03T01:39:52;19.70;;;8.48;;
23952;SDS011;12163;49.316;6.092;2023-03-03T01:42:20;14.80;;;8.73;;
23952;SDS011;12163;49.316;6.092;2023-03-03T01:44:47;16.38;;;8.25;;
23952;SDS011;12163;49.316;6.092;2023-03-03T01:47:15;20.05;;;8.45;;
23952;SDS011;12163;49.316;6.092;2023-03-03T01:52:25;17.02;;;8.68;;
23952;SDS011;12163;49.316;6.092;2023-03-03T01:55:10;19.00;;;8.25;;
23952;SDS011;12163;49.316;6.092;2023-03-03T01:57:47;16.58;;;8.65;;
23952;SDS011;12163;49.316;6.092;2023-03-03T02:00:24;18.95;;;8.52;;
23952;SDS011;12163;49.316;6.092;2023-03-03T02:02:52;14.70;;;7.90;;
23952;SDS011;12163;49.316;6.092;2023-03-03T02:05:20;16.33;;;8.52;;
23952;SDS011;12163;49.316;6.092;2023-03-03T02:07:47;17.08;;;8.23;;
23952;SDS011;12163;49.316;6.092;2023-03-03T02:10:15;17.70;;;8.60;;
23952;SDS011;12163;49.316;6.092;2023-03-03T02:12:44;15.40;;;8.55;;
23952;SDS011;12163;49.316;6.092;2023-03-03T02:15:18;17.95;;;8.63;;
23952;SDS011;12163;49.316;6.092;2023-03-03T02:17:53;20.92;;;8.48;;
23952;SDS011;12163;49.316;6.092;2023-03-03T02:28:28;15.95;;;8.52;;
23952;SDS011;12163;49.316;6.092;2023-03-03T02:30:57;17.63;;;8.57;;
23952;SDS011;12163;49.316;6.092;2023-03-03T02:33:25;15.27;;;8.60;;
23952;SDS011;12163;49.316;6.092;2023-03-03T02:35:53;15.73;;;8.48;;
23952;SDS011;12163;49.316;6.092;2023-03-03T02:38:40;21.42;;;8.77;;
23952;SDS011;12163;49.316;6.092;2023-03-03T02:41:28;17.38;;;8.20;;
23952;SDS011;12163;49.316;6.092;2023-03-03T02:44:09;15.65;;;8.60;;
23952;SDS011;12163;49.316;6.092;2023-03-03T02:46:42;16.17;;;9.52;;
23952;SDS011;12163;49.316;6.092;2023-03-03T02:49:13;17.27;;;9.07;;
23952;SDS011;12163;49.316;6.092;2023-03-03T02:51:43;16.95;;;8.60;;
23952;SDS011;12163;49.316;6.092;2023-03-03T02:54:10;17.67;;;9.10;;
23952;SDS011;12163;49.316;6.092;2023-03-03T02:56:38;16.38;;;8.25;;
23952;SDS011;12163;49.316;6.092;2023-03-03T02:59:05;13.05;;;7.72;;
23952;SDS011;12163;49.316;6.092;2023-03-03T03:01:32;17.02;;;8.30;;
23952;SDS011;12163;49.316;6.092;2023-03-03T03:04:06;21.50;;;9.27;;
23952;SDS011;12163;49.316;6.092;2023-03-03T03:06:35;20.15;;;9.35;;
23952;SDS011;12163;49.316;6.092;2023-03-03T03:09:02;15.20;;;8.20;;
23952;SDS011;12163;49.316;6.092;2023-03-03T03:11:29;16.98;;;9.15;;
23952;SDS011;12163;49.316;6.092;2023-03-03T03:13:56;16.10;;;8.00;;
23952;SDS011;12163;49.316;6.092;2023-03-03T03:16:23;15.63;;;8.40;;
23952;SDS011;12163;49.316;6.092;2023-03-03T03:18:49;16.23;;;8.27;;
23952;SDS011;12163;49.316;6.092;2023-03-03T03:21:16;19.50;;;8.32;;
23952;SDS011;12163;49.316;6.092;2023-03-03T03:23:43;20.35;;;8.63;;
23952;SDS011;12163;49.316;6.092;2023-03-03T03:26:10;17.52;;;8.30;;
23952;SDS011;12163;49.316;6.092;2023-03-03T03:28:37;15.98;;;9.10;;
23952;SDS011;12163;49.316;6.092;2023-03-03T03:31:04;14.48;;;7.53;;
23952;SDS011;12163;49.316;6.092;2023-03-03T03:33:32;18.48;;;8.82;;
23952;SDS011;12163;49.316;6.092;2023-03-03T03:35:59;20.77;;;8.45;;
23952;SDS011;12163;49.316;6.092;2023-03-03T03:38:26;15.23;;;8.40;;
23952;SDS011;12163;49.316;6.092;2023-03-03T03:40:55;14.88;;;7.85;;
23952;SDS011;12163;49.316;6.092;2023-03-03T03:43:21;15.02;;;8.25;;
23952;SDS011;12163;49.316;6.092;2023-03-03T03:45:48;17.80;;;8.48;;
23952;SDS011;12163;49.316;6.092;2023-03-03T03:48:15;19.25;;;8.35;;
23952;SDS011;12163;49.316;6.092;2023-03-03T03:50:42;23.90;;;8.38;;
23952;SDS011;12163;49.316;6.092;2023-03-03T03:53:09;15.68;;;7.93;;
23952;SDS011;12163;49.316;6.092;2023-03-03T03:55:36;16.30;;;8.48;;
23952;SDS011;12163;49.316;6.092;2023-03-03T03:58:02;12.07;;;7.55;;
23952;SDS011;12163;49.316;6.092;2023-03-03T04:00:29;21.33;;;7.38;;
23952;SDS011;12163;49.316;6.092;2023-03-03T04:02:55;18.45;;;8.52;;
23952;SDS011;12163;49.316;6.092;2023-03-03T04:05:22;16.92;;;7.95;;
23952;SDS011;12163;49.316;6.092;2023-03-03T04:07:49;15.27;;;8.32;;
23952;SDS011;12163;49.316;6.092;2023-03-03T04:10:15;20.45;;;8.50;;
23952;SDS011;12163;49.316;6.092;2023-03-03T04:12:43;19.83;;;8.10;;
23952;SDS011;12163;49.316;6.092;2023-03-03T04:15:10;18.67;;;8.73;;
23952;SDS011;12163;49.316;6.092;2023-03-03T04:17:38;19.60;;;7.90;;
23952;SDS011;12163;49.316;6.092;2023-03-03T04:20:06;15.90;;;7.57;;
23952;SDS011;12163;49.316;6.092;2023-03-03T04:22:33;17.40;;;9.07;;
23952;SDS011;12163;49.316;6.092;2023-03-03T04:25:04;17.13;;;8.45;;
23952;SDS011;12163;49.316;6.092;2023-03-03T04:27:32;16.80;;;8.30;;
23952;SDS011;12163;49.316;6.092;2023-03-03T04:30:03;12.52;;;7.63;;
23952;SDS011;12163;49.316;6.092;2023-03-03T04:32:31;22.23;;;8.80;;
23952;SDS011;12163;49.316;6.092;2023-03-03T04:34:59;16.63;;;8.15;;
23952;SDS011;12163;49.316;6.092;2023-03-03T04:37:33;20.92;;;8.30;;
23952;SDS011;12163;49.316;6.092;2023-03-03T04:40:00;15.18;;;8.00;;
23952;SDS011;12163;49.316;6.092;2023-03-03T04:42:27;17.10;;;8.75;;
23952;SDS011;12163;49.316;6.092;2023-03-03T04:44:54;14.88;;;8.00;;
23952;SDS011;12163;49.316;6.092;2023-03-03T04:47:20;19.88;;;8.70;;
23952;SDS011;12163;49.316;6.092;2023-03-03T04:49:47;18.73;;;8.15;;
23952;SDS011;12163;49.316;6.092;2023-03-03T04:52:13;15.27;;;7.80;;
23952;SDS011;12163;49.316;6.092;2023-03-03T04:54:40;21.50;;;8.35;;
23952;SDS011;12163;49.316;6.092;2023-03-03T04:57:07;17.27;;;8.15;;
23952;SDS011;12163;49.316;6.092;2023-03-03T04:59:34;15.70;;;8.57;;
23952;SDS011;12163;49.316;6.092;2023-03-03T05:02:01;20.45;;;8.90;;
23952;SDS011;12163;49.316;6.092;2023-03-03T05:04:30;13.93;;;8.38;;
23952;SDS011;12163;49.316;6.092;2023-03-03T05:06:57;20.10;;;7.95;;
23952;SDS011;12163;49.316;6.092;2023-03-03T05:09:23;15.60;;;8.60;;
23952;SDS011;12163;49.316;6.092;2023-03-03T05:11:50;13.85;;;8.88;;
23952;SDS011;12163;49.316;6.092;2023-03-03T05:14:17;17.08;;;7.97;;
23952;SDS011;12163;49.316;6.092;2023-03-03T05:16:43;13.93;;;8.00;;
23952;SDS011;12163;49.316;6.092;2023-03-03T05:19:10;13.02;;;7.88;;
23952;SDS011;12163;49.316;6.092;2023-03-03T05:21:37;14.68;;;7.60;;
23952;SDS011;12163;49.316;6.092;2023-03-03T05:24:08;13.95;;;8.10;;
23952;SDS011;12163;49.316;6.092;2023-03-03T05:26:36;17.52;;;8.02;;
23952;SDS011;12163;49.316;6.092;2023-03-03T05:29:03;16.45;;;8.40;;
23952;SDS011;12163;49.316;6.092;2023-03-03T05:31:30;14.77;;;7.97;;
23952;SDS011;12163;49.316;6.092;2023-03-03T05:33:56;15.27;;;7.75;;
23952;SDS011;12163;49.316;6.092;2023-03-03T05:36:23;17.25;;;8.38;;
23952;SDS011;12163;49.316;6.092;2023-03-03T05:38:50;20.27;;;8.45;;
23952;SDS011;12163;49.316;6.092;2023-03-03T05:41:17;16.10;;;8.60;;
23952;SDS011;12163;49.316;6.092;2023-03-03T05:43:44;18.13;;;8.25;;
23952;SDS011;12163;49.316;6.092;2023-03-03T05:46:10;17.75;;;8.93;;
23952;SDS011;12163;49.316;6.092;2023-03-03T05:48:37;16.27;;;8.18;;
23952;SDS011;12163;49.316;6.092;2023-03-03T05:51:04;23.30;;;8.60;;
23952;SDS011;12163;49.316;6.092;2023-03-03T05:53:30;17.23;;;9.27;;
23952;SDS011;12163;49.316;6.092;2023-03-03T05:55:57;19.20;;;9.00;;
23952;SDS011;12163;49.316;6.092;2023-03-03T05:58:24;20.42;;;9.55;;
23952;SDS011;12163;49.316;6.092;2023-03-03T06:00:51;11.75;;;6.28;;
23952;SDS011;12163;49.316;6.092;2023-03-03T06:03:17;11.55;;;6.35;;
23952;SDS011;12163;49.316;6.092;2023-03-03T06:05:44;18.95;;;9.00;;
23952;SDS011;12163;49.316;6.092;2023-03-03T06:08:10;19.70;;;8.23;;
23952;SDS011;12163;49.316;6.092;2023-03-03T06:10:37;20.65;;;9.60;;
23952;SDS011;12163;49.316;6.092;2023-03-03T06:13:04;18.58;;;8.55;;
23952;SDS011;12163;49.316;6.092;2023-03-03T06:15:30;19.52;;;8.38;;
23952;SDS011;12163;49.316;6.092;2023-03-03T06:17:57;22.75;;;8.55;;
23952;SDS011;12163;49.316;6.092;2023-03-03T06:20:24;17.90;;;8.93;;
23952;SDS011;12163;49.316;6.092;2023-03-03T06:22:50;20.70;;;10.00;;
23952;SDS011;12163;49.316;6.092;2023-03-03T06:25:17;17.20;;;9.90;;
23952;SDS011;12163;49.316;6.092;2023-03-03T06:27:44;23.85;;;10.70;;
23952;SDS011;12163;49.316;6.092;2023-03-03T06:30:10;17.23;;;10.55;;
23952;SDS011;12163;49.316;6.092;2023-03-03T06:32:38;20.00;;;10.73;;
23952;SDS011;12163;49.316;6.092;2023-03-03T06:35:05;20.92;;;10.00;;
23952;SDS011;12163;49.316;6.092;2023-03-03T06:37:32;19.83;;;10.85;;
23952;SDS011;12163;49.316;6.092;2023-03-03T06:39:58;24.90;;;11.07;;
23952;SDS011;12163;49.316;6.092;2023-03-03T06:42:25;21.42;;;10.93;;
23952;SDS011;12163;49.316;6.092;2023-03-03T06:44:52;20.33;;;11.23;;
23952;SDS011;12163;49.316;6.092;2023-03-03T06:47:19;22.40;;;11.60;;
23952;SDS011;12163;49.316;6.092;2023-03-03T06:49:45;21.33;;;10.68;;
23952;SDS011;12163;49.316;6.092;2023-03-03T06:52:19;22.60;;;11.32;;
23952;SDS011;12163;49.316;6.092;2023-03-03T06:54:52;20.58;;;11.55;;
23952;SDS011;12163;49.316;6.092;2023-03-03T06:57:28;20.35;;;10.77;;
23952;SDS011;12163;49.316;6.092;2023-03-03T06:59:59;20.73;;;10.43;;
23952;SDS011;12163;49.316;6.092;2023-03-03T07:02:38;20.90;;;11.45;;
23952;SDS011;12163;49.316;6.092;2023-03-03T07:05:06;19.30;;;10.98;;
23952;SDS011;12163;49.316;6.092;2023-03-03T07:07:39;18.08;;;11.20;;
23952;SDS011;12163;49.316;6.092;2023-03-03T07:10:06;21.67;;;10.75;;
23952;SDS011;12163;49.316;6.092;2023-03-03T07:12:43;27.45;;;11.48;;
23952;SDS011;12163;49.316;6.092;2023-03-03T07:17:47;19.48;;;11.40;;
23952;SDS011;12163;49.316;6.092;2023-03-03T07:22:50;25.35;;;11.45;;
23952;SDS011;12163;49.316;6.092;2023-03-03T07:28:00;19.73;;;11.65;;
23952;SDS011;12163;49.316;6.092;2023-03-03T07:30:40;22.35;;;11.32;;
23952;SDS011;12163;49.316;6.092;2023-03-03T07:33:13;18.80;;;11.80;;
23952;SDS011;12163;49.316;6.092;2023-03-03T07:35:45;22.77;;;12.32;;
23952;SDS011;12163;49.316;6.092;2023-03-03T07:40:40;20.88;;;12.35;;
23952;SDS011;12163;49.316;6.092;2023-03-03T07:46:00;24.38;;;11.70;;
23952;SDS011;12163;49.316;6.092;2023-03-03T07:48:43;28.85;;;12.82;;
23952;SDS011;12163;49.316;6.092;2023-03-03T07:51:35;20.23;;;11.75;;
23952;SDS011;12163;49.316;6.092;2023-03-03T07:56:45;20.50;;;12.48;;
23952;SDS011;12163;49.316;6.092;2023-03-03T07:59:17;22.52;;;11.98;;
23952;SDS011;12163;49.316;6.092;2023-03-03T08:01:49;24.25;;;13.00;;
23952;SDS011;12163;49.316;6.092;2023-03-03T08:04:22;23.77;;;11.77;;
23952;SDS011;12163;49.316;6.092;2023-03-03T08:07:08;22.85;;;12.75;;
23952;SDS011;12163;49.316;6.092;2023-03-03T08:09:49;22.38;;;12.75;;
23952;SDS011;12163;49.316;6.092;2023-03-03T08:12:33;29.80;;;12.90;;
23952;SDS011;12163;49.316;6.092;2023-03-03T08:15:16;22.85;;;12.85;;
23952;SDS011;12163;49.316;6.092;2023-03-03T08:17:46;22.40;;;13.18;;
23952;SDS011;12163;49.316;6.092;2023-03-03T08:23:15;26.50;;;12.65;;
23952;SDS011;12163;49.316;6.092;2023-03-03T08:25:44;20.60;;;12.30;;
23952;SDS011;12163;49.316;6.092;2023-03-03T08:28:11;21.05;;;12.93;;
23952;SDS011;12163;49.316;6.092;2023-03-03T08:30:39;18.60;;;12.15;;
23952;SDS011;12163;49.316;6.092;2023-03-03T08:33:06;23.05;;;13.20;;
23952;SDS011;12163;49.316;6.092;2023-03-03T08:35:32;19.15;;;12.38;;
23952;SDS011;12163;49.316;6.092;2023-03-03T08:37:59;22.77;;;12.45;;
23952;SDS011;12163;49.316;6.092;2023-03-03T08:40:26;20.48;;;12.98;;
23952;SDS011;12163;49.316;6.092;2023-03-03T08:42:52;24.08;;;12.90;;
23952;SDS011;12163;49.316;6.092;2023-03-03T08:45:19;22.65;;;12.40;;
23952;SDS011;12163;49.316;6.092;2023-03-03T08:47:46;23.13;;;13.65;;
23952;SDS011;12163;49.316;6.092;2023-03-03T08:50:13;21.38;;;12.35;;
23952;SDS011;12163;49.316;6.092;2023-03-03T08:52:40;22.65;;;13.25;;
23952;SDS011;12163;49.316;6.092;2023-03-03T08:55:07;22.65;;;12.23;;
23952;SDS011;12163;49.316;6.092;2023-03-03T08:57:34;23.00;;;13.73;;
23952;SDS011;12163;49.316;6.092;2023-03-03T09:00:01;21.00;;;12.57;;
23952;SDS011;12163;49.316;6.092;2023-03-03T09:02:27;27.33;;;12.52;;
23952;SDS011;12163;49.316;6.092;2023-03-03T09:04:54;31.05;;;13.23;;
23952;SDS011;12163;49.316;6.092;2023-03-03T09:07:20;20.75;;;13.43;;
23952;SDS011;12163;49.316;6.092;2023-03-03T09:09:47;24.73;;;12.85;;
23952;SDS011;12163;49.316;6.092;2023-03-03T09:12:18;23.15;;;12.88;;
23952;SDS011;12163;49.316;6.092;2023-03-03T09:14:48;22.95;;;12.82;;
23952;SDS011;12163;49.316;6.092;2023-03-03T09:17:29;28.52;;;14.82;;
23952;SDS011;12163;49.316;6.092;2023-03-03T09:20:00;20.25;;;12.88;;
23952;SDS011;12163;49.316;6.092;2023-03-03T09:22:42;23.20;;;13.65;;
23952;SDS011;12163;49.316;6.092;2023-03-03T09:25:17;25.98;;;13.90;;
23952;SDS011;12163;49.316;6.092;2023-03-03T09:33:01;23.58;;;13.00;;
23952;SDS011;12163;49.316;6.092;2023-03-03T09:35:46;24.52;;;12.88;;
23952;SDS011;12163;49.316;6.092;2023-03-03T09:46:24;23.45;;;13.82;;
23952;SDS011;12163;49.316;6.092;2023-03-03T09:49:54;24.63;;;13.70;;
23952;SDS011;12163;49.316;6.092;2023-03-03T09:55:02;26.27;;;14.95;;
23952;SDS011;12163;49.316;6.092;2023-03-03T09:57:49;27.77;;;14.45;;
23952;SDS011;12163;49.316;6.092;2023-03-03T10:15:19;29.83;;;16.05;;
23952;SDS011;12163;49.316;6.092;2023-03-03T10:17:47;26.35;;;16.17;;
23952;SDS011;12163;49.316;6.092;2023-03-03T10:20:24;27.90;;;16.45;;
23952;SDS011;12163;49.316;6.092;2023-03-03T10:22:54;26.15;;;16.25;;
23952;SDS011;12163;49.316;6.092;2023-03-03T10:28:45;26.50;;;15.73;;
23952;SDS011;12163;49.316;6.092;2023-03-03T11:08:40;27.83;;;15.45;;
23952;SDS011;12163;49.316;6.092;2023-03-03T11:14:20;25.35;;;15.43;;
23952;SDS011;12163;49.316;6.092;2023-03-03T11:25:04;28.95;;;17.83;;
23952;SDS011;12163;49.316;6.092;2023-03-03T11:28:06;29.40;;;17.65;;
23952;SDS011;12163;49.316;6.092;2023-03-03T11:30:45;34.08;;;16.05;;
23952;SDS011;12163;49.316;6.092;2023-03-03T11:47:00;29.67;;;16.25;;
23952;SDS011;12163;49.316;6.092;2023-03-03T11:54:35;25.30;;;16.35;;
23952;SDS011;12163;49.316;6.092;2023-03-03T12:25:34;28.58;;;17.02;;
23952;SDS011;12163;49.316;6.092;2023-03-03T12:28:18;26.90;;;15.90;;
23952;SDS011;12163;49.316;6.092;2023-03-03T12:44:17;26.50;;;16.42;;
23952;SDS011;12163;49.316;6.092;2023-03-03T12:47:02;28.70;;;17.67;;
23952;SDS011;12163;49.316;6.092;2023-03-03T12:49:35;28.73;;;18.10;;
23952;SDS011;12163;49.316;6.092;2023-03-03T13:05:59;30.52;;;18.85;;
23952;SDS011;12163;49.316;6.092;2023-03-03T13:08:56;28.13;;;17.58;;
23952;SDS011;12163;49.316;6.092;2023-03-03T13:11:35;31.77;;;18.85;;
23952;SDS011;12163;49.316;6.092;2023-03-03T13:14:22;31.20;;;18.83;;
23952;SDS011;12163;49.316;6.092;2023-03-03T13:17:06;30.05;;;18.23;;
23952;SDS011;12163;49.316;6.092;2023-03-03T13:19:48;34.88;;;19.17;;
23952;SDS011;12163;49.316;6.092;2023-03-03T13:25:34;32.13;;;19.17;;
23952;SDS011;12163;49.316;6.092;2023-03-03T13:31:36;37.38;;;19.95;;
23952;SDS011;12163;49.316;6.092;2023-03-03T13:37:23;36.20;;;19.52;;
23952;SDS011;12163;49.316;6.092;2023-03-03T13:40:17;37.75;;;20.77;;
23952;SDS011;12163;49.316;6.092;2023-03-03T13:48:37;35.17;;;21.48;;
23952;SDS011;12163;49.316;6.092;2023-03-03T14:05:43;33.63;;;21.13;;
23952;SDS011;12163;49.316;6.092;2023-03-03T14:13:59;37.53;;;20.67;;
23952;SDS011;12163;49.316;6.092;2023-03-03T14:19:31;33.13;;;20.02;;
23952;SDS011;12163;49.316;6.092;2023-03-03T14:25:05;33.35;;;19.88;;
23952;SDS011;12163;49.316;6.092;2023-03-03T14:27:36;41.25;;;21.15;;
23952;SDS011;12163;49.316;6.092;2023-03-03T14:35:37;29.05;;;17.13;;
23952;SDS011;12163;49.316;6.092;2023-03-03T14:40:41;34.75;;;17.85;;
23952;SDS011;12163;49.316;6.092;2023-03-03T14:45:54;30.15;;;17.05;;
23952;SDS011;12163;49.316;6.092;2023-03-03T14:48:22;27.50;;;15.80;;
23952;SDS011;12163;49.316;6.092;2023-03-03T14:50:51;30.40;;;15.18;;
23952;SDS011;12163;49.316;6.092;2023-03-03T14:53:56;27.70;;;15.93;;
23952;SDS011;12163;49.316;6.092;2023-03-03T14:56:21;29.75;;;15.05;;
23952;SDS011;12163;49.316;6.092;2023-03-03T14:58:50;28.38;;;14.90;;
23952;SDS011;12163;49.316;6.092;2023-03-03T15:03:58;31.98;;;13.45;;
23952;SDS011;12163;49.316;6.092;2023-03-03T15:06:34;25.35;;;12.40;;
23952;SDS011;12163;49.316;6.092;2023-03-03T15:11:52;24.98;;;10.95;;
23952;SDS011;12163;49.316;6.092;2023-03-03T15:14:37;22.08;;;11.32;;
23952;SDS011;12163;49.316;6.092;2023-03-03T15:17:15;30.00;;;12.20;;
23952;SDS011;12163;49.316;6.092;2023-03-03T15:22:19;21.15;;;11.35;;
23952;SDS011;12163;49.316;6.092;2023-03-03T15:27:51;19.02;;;11.60;;
23952;SDS011;12163;49.316;6.092;2023-03-03T15:33:09;17.73;;;11.55;;
23952;SDS011;12163;49.316;6.092;2023-03-03T15:41:37;19.05;;;10.93;;
23952;SDS011;12163;49.316;6.092;2023-03-03T15:58:04;17.38;;;10.52;;
23952;SDS011;12163;49.316;6.092;2023-03-03T16:03:55;17.40;;;11.00;;
23952;SDS011;12163;49.316;6.092;2023-03-03T16:06:30;12.75;;;7.95;;
23952;SDS011;12163;49.316;6.092;2023-03-03T16:19:57;11.93;;;7.18;;
23952;SDS011;12163;49.316;6.092;2023-03-03T16:22:58;12.57;;;7.43;;
23952;SDS011;12163;49.316;6.092;2023-03-03T16:28:45;10.55;;;5.80;;
23952;SDS011;12163;49.316;6.092;2023-03-03T16:36:31;12.43;;;6.03;;
23952;SDS011;12163;49.316;6.092;2023-03-03T16:47:35;11.27;;;5.95;;
23952;SDS011;12163;49.316;6.092;2023-03-03T16:55:44;13.63;;;5.80;;
23952;SDS011;12163;49.316;6.092;2023-03-03T16:58:21;10.05;;;5.13;;
23952;SDS011;12163;49.316;6.092;2023-03-03T17:17:43;11.77;;;6.30;;
23952;SDS011;12163;49.316;6.092;2023-03-03T17:28:30;18.55;;;7.72;;
23952;SDS011;12163;49.316;6.092;2023-03-03T17:33:50;15.65;;;8.85;;
23952;SDS011;12163;49.316;6.092;2023-03-03T17:39:39;22.55;;;12.48;;
23952;SDS011;12163;49.316;6.092;2023-03-03T17:45:08;15.80;;;7.78;;
23952;SDS011;12163;49.316;6.092;2023-03-03T17:47:45;19.00;;;9.30;;
23952;SDS011;12163;49.316;6.092;2023-03-03T17:50:31;18.65;;;9.00;;
23952;SDS011;12163;49.316;6.092;2023-03-03T18:05:33;24.67;;;11.23;;
23952;SDS011;12163;49.316;6.092;2023-03-03T18:08:21;20.63;;;11.43;;
23952;SDS011;12163;49.316;6.092;2023-03-03T18:22:06;20.43;;;11.03;;
23952;SDS011;12163;49.316;6.092;2023-03-03T18:25:03;19.35;;;11.07;;
23952;SDS011;12163;49.316;6.092;2023-03-03T18:38:21;24.05;;;12.63;;
23952;SDS011;12163;49.316;6.092;2023-03-03T18:43:46;23.08;;;12.98;;
23952;SDS011;12163;49.316;6.092;2023-03-03T19:04:40;33.03;;;17.17;;
23952;SDS011;12163;49.316;6.092;2023-03-03T19:09:53;36.15;;;17.95;;
23952;SDS011;12163;49.316;6.092;2023-03-03T19:13:12;37.25;;;19.88;;
23952;SDS011;12163;49.316;6.092;2023-03-03T19:18:20;36.88;;;19.88;;
23952;SDS011;12163;49.316;6.092;2023-03-03T19:20:57;34.90;;;20.07;;
23952;SDS011;12163;49.316;6.092;2023-03-03T19:23:33;39.58;;;19.83;;
23952;SDS011;12163;49.316;6.092;2023-03-03T19:29:02;42.92;;;21.63;;
23952;SDS011;12163;49.316;6.092;2023-03-03T19:32:00;44.25;;;22.38;;
23952;SDS011;12163;49.316;6.092;2023-03-03T19:40:13;42.42;;;23.08;;
23952;SDS011;12163;49.316;6.092;2023-03-03T19:47:56;42.15;;;23.60;;
23952;SDS011;12163;49.316;6.092;2023-03-03T19:50:32;44.60;;;23.55;;
23952;SDS011;12163;49.316;6.092;2023-03-03T19:58:19;46.55;;;23.70;;
23952;SDS011;12163;49.316;6.092;2023-03-03T20:01:06;44.65;;;24.17;;
23952;SDS011;12163;49.316;6.092;2023-03-03T20:15:53;50.85;;;25.80;;
23952;SDS011;12163;49.316;6.092;2023-03-03T20:18:20;52.10;;;25.95;;
23952;SDS011;12163;49.316;6.092;2023-03-03T20:21:09;46.60;;;25.13;;
23952;SDS011;12163;49.316;6.092;2023-03-03T20:26:37;52.15;;;26.15;;
23952;SDS011;12163;49.316;6.092;2023-03-03T20:43:31;55.03;;;28.38;;
23952;SDS011;12163;49.316;6.092;2023-03-03T20:46:14;54.95;;;28.42;;
23952;SDS011;12163;49.316;6.092;2023-03-03T20:59:53;60.75;;;31.13;;
23952;SDS011;12163;49.316;6.092;2023-03-03T21:10:21;64.85;;;32.25;;
23952;SDS011;12163;49.316;6.092;2023-03-03T21:12:50;59.85;;;30.67;;
23952;SDS011;12163;49.316;6.092;2023-03-03T21:15:28;71.57;;;32.00;;
23952;SDS011;12163;49.316;6.092;2023-03-03T21:17:57;61.75;;;30.83;;
23952;SDS011;12163;49.316;6.092;2023-03-03T21:20:26;65.10;;;30.83;;
23952;SDS011;12163;49.316;6.092;2023-03-03T21:22:57;67.57;;;32.78;;
23952;SDS011;12163;49.316;6.092;2023-03-03T21:31:13;71.22;;;34.60;;
23952;SDS011;12163;49.316;6.092;2023-03-03T21:33:54;68.70;;;33.08;;
23952;SDS011;12163;49.316;6.092;2023-03-03T21:38:57;69.40;;;32.08;;
23952;SDS011;12163;49.316;6.092;2023-03-03T21:41:24;62.67;;;30.90;;
23952;SDS011;12163;49.316;6.092;2023-03-03T21:43:51;82.43;;;35.42;;
23952;SDS011;12163;49.316;6.092;2023-03-03T21:46:22;73.90;;;32.67;;
23952;SDS011;12163;49.316;6.092;2023-03-03T21:48:50;67.30;;;31.13;;
23952;SDS011;12163;49.316;6.092;2023-03-03T21:51:17;75.88;;;32.40;;
23952;SDS011;12163;49.316;6.092;2023-03-03T21:53:45;73.15;;;32.80;;
23952;SDS011;12163;49.316;6.092;2023-03-03T21:56:12;73.35;;;32.47;;
23952;SDS011;12163;49.316;6.092;2023-03-03T21:58:40;72.78;;;32.33;;
23952;SDS011;12163;49.316;6.092;2023-03-03T22:01:07;73.00;;;32.00;;
23952;SDS011;12163;49.316;6.092;2023-03-03T22:03:34;70.80;;;32.47;;
23952;SDS011;12163;49.316;6.092;2023-03-03T22:06:00;71.30;;;31.20;;
23952;SDS011;12163;49.316;6.092;2023-03-03T22:08:28;73.55;;;31.80;;
23952;SDS011;12163;49.316;6.092;2023-03-03T22:10:54;70.32;;;30.75;;
23952;SDS011;12163;49.316;6.092;2023-03-03T22:13:24;69.78;;;30.88;;
23952;SDS011;12163;49.316;6.092;2023-03-03T22:15:52;73.25;;;32.40;;
23952;SDS011;12163;49.316;6.092;2023-03-03T22:18:19;75.93;;;32.00;;
23952;SDS011;12163;49.316;6.092;2023-03-03T22:20:46;70.60;;;31.85;;
23952;SDS011;12163;49.316;6.092;2023-03-03T22:23:14;75.40;;;33.00;;
23952;SDS011;12163;49.316;6.092;2023-03-03T22:25:41;71.88;;;31.95;;
23952;SDS011;12163;49.316;6.092;2023-03-03T22:28:08;82.22;;;32.53;;
23952;SDS011;12163;49.316;6.092;2023-03-03T22:30:34;82.93;;;34.10;;
23952;SDS011;12163;49.316;6.092;2023-03-03T22:33:01;73.88;;;31.63;;
23952;SDS011;12163;49.316;6.092;2023-03-03T22:35:28;78.32;;;32.00;;
23952;SDS011;12163;49.316;6.092;2023-03-03T22:37:55;75.13;;;32.90;;
23952;SDS011;12163;49.316;6.092;2023-03-03T22:40:22;73.43;;;33.05;;
23952;SDS011;12163;49.316;6.092;2023-03-03T22:42:48;78.00;;;33.88;;
23952;SDS011;12163;49.316;6.092;2023-03-03T22:45:15;80.50;;;33.03;;
23952;SDS011;12163;49.316;6.092;2023-03-03T22:47:42;78.65;;;32.72;;
23952;SDS011;12163;49.316;6.092;2023-03-03T22:50:08;85.32;;;34.42;;
23952;SDS011;12163;49.316;6.092;2023-03-03T22:52:35;79.70;;;33.85;;
23952;SDS011;12163;49.316;6.092;2023-03-03T22:55:02;83.75;;;35.10;;
23952;SDS011;12163;49.316;6.092;2023-03-03T22:57:29;84.40;;;33.85;;
23952;SDS011;12163;49.316;6.092;2023-03-03T22:59:56;85.75;;;36.42;;
23952;SDS011;12163;49.316;6.092;2023-03-03T23:02:25;85.38;;;36.53;;
23952;SDS011;12163;49.316;6.092;2023-03-03T23:04:51;81.95;;;34.40;;
23952;SDS011;12163;49.316;6.092;2023-03-03T23:09:51;86.50;;;35.28;;